createdAt,value
2022-08-21T00:01:58.430Z,18.03
2022-08-21T00:07:08.043Z,17.96
2022-08-21T00:09:35.751Z,17.95
2022-08-21T00:12:09.043Z,17.86
2022-08-21T00:14:41.669Z,17.85
2022-08-21T00:17:09.069Z,17.85
2022-08-21T00:19:39.008Z,17.81
2022-08-21T00:22:07.148Z,17.84
2022-08-21T00:27:16.747Z,17.74
2022-08-21T00:29:44.991Z,17.76
2022-08-21T00:32:31.625Z,17.69
2022-08-21T00:35:00.298Z,17.56
2022-08-21T00:38:59.178Z,17.56
2022-08-21T00:41:38.948Z,17.51
2022-08-21T00:46:52.023Z,17.54
2022-08-21T00:52:03.247Z,17.40
2022-08-21T01:08:56.536Z,17.08
2022-08-21T01:11:28.032Z,17.06
2022-08-21T01:13:55.920Z,16.99
2022-08-21T01:16:24.177Z,17.01
2022-08-21T01:18:53.162Z,16.98
2022-08-21T01:21:27.863Z,16.91
2022-08-21T01:24:02.602Z,16.94
2022-08-21T01:26:34.631Z,16.92
2022-08-21T01:29:19.101Z,16.87
2022-08-21T01:36:18.701Z,16.84
2022-08-21T01:38:48.182Z,16.81
2022-08-21T01:41:18.555Z,16.78
2022-08-21T01:43:50.635Z,16.73
2022-08-21T01:46:27.444Z,16.71
2022-08-21T01:48:59.048Z,16.72
2022-08-21T01:54:08.390Z,16.59
2022-08-21T01:59:25.416Z,16.57
2022-08-21T02:01:57.159Z,16.52
2022-08-21T02:04:38.119Z,16.55
2022-08-21T02:07:08.437Z,16.53
2022-08-21T02:09:43.354Z,16.53
2022-08-21T02:12:12.251Z,16.53
2022-08-21T02:18:08.139Z,16.53
2022-08-21T02:20:42.800Z,16.55
2022-08-21T02:23:14.124Z,16.47
2022-08-21T02:25:51.796Z,16.57
2022-08-21T02:28:19.807Z,16.53
2022-08-21T02:30:48.933Z,16.53
2022-08-21T02:33:17.204Z,16.48
2022-08-21T02:38:34.761Z,16.44
2022-08-21T02:41:06.626Z,16.45
2022-08-21T02:44:39.074Z,16.45
2022-08-21T02:47:08.243Z,16.47
2022-08-21T02:49:38.028Z,16.45
2022-08-21T02:52:07.367Z,16.35
2022-08-21T02:54:37.977Z,16.31
2022-08-21T02:57:05.263Z,16.29
2022-08-21T02:59:33.389Z,16.36
2022-08-21T03:02:02.425Z,16.43
2022-08-21T03:04:41.372Z,16.42
2022-08-21T03:14:56.077Z,16.41
2022-08-21T03:23:38.765Z,16.56
2022-08-21T03:26:06.463Z,16.59
2022-08-21T03:28:37.924Z,16.60
2022-08-21T03:31:11.069Z,16.62
2022-08-21T03:33:38.959Z,16.74
2022-08-21T03:36:13.420Z,16.73
2022-08-21T03:38:43.471Z,16.76
2022-08-21T03:56:57.943Z,16.91
2022-08-21T03:59:34.846Z,16.93
2022-08-21T04:02:08.919Z,16.92
2022-08-21T04:07:22.462Z,16.96
2022-08-21T04:09:50.589Z,17.06
2022-08-21T04:12:20.663Z,17.06
2022-08-21T04:17:33.047Z,17.18
2022-08-21T04:20:04.910Z,17.23
2022-08-21T04:22:32.643Z,17.33
2022-08-21T04:25:00.452Z,17.35
2022-08-21T04:27:32.025Z,17.24
2022-08-21T04:35:38.804Z,17.41
2022-08-21T04:40:50.595Z,17.34
2022-08-21T04:43:19.609Z,17.41
2022-08-21T04:45:52.203Z,17.48
2022-08-21T04:48:22.251Z,17.53
2022-08-21T04:51:08.502Z,17.57
2022-08-21T04:54:06.874Z,17.67
2022-08-21T04:56:47.710Z,17.74
2022-08-21T05:02:16.867Z,17.76
2022-08-21T05:04:53.525Z,17.80
2022-08-21T05:21:23.194Z,18.22
2022-08-21T05:23:51.931Z,18.22
2022-08-21T05:26:19.859Z,18.29
2022-08-21T05:28:48.686Z,18.37
2022-08-21T05:31:16.925Z,18.43
2022-08-21T05:33:44.131Z,18.49
2022-08-21T05:41:39.356Z,18.82
2022-08-21T05:44:12.268Z,18.83
2022-08-21T05:46:40.119Z,18.87
2022-08-21T05:49:07.629Z,18.82
2022-08-21T05:51:35.246Z,18.91
2022-08-21T05:54:06.370Z,18.94
2022-08-21T05:56:37.802Z,18.95
2022-08-21T05:59:08.581Z,19.09
2022-08-21T06:01:38.153Z,19.23
2022-08-21T06:04:15.290Z,19.31
2022-08-21T06:06:42.623Z,19.40
2022-08-21T06:11:52.622Z,19.58
2022-08-21T06:14:26.303Z,19.70
2022-08-21T06:16:55.767Z,19.83
2022-08-21T06:19:26.824Z,19.94
2022-08-21T06:21:58.245Z,19.96
2022-08-21T06:27:10.987Z,20.06
2022-08-21T06:29:44.226Z,20.24
2022-08-21T06:35:02.964Z,20.49
2022-08-21T06:37:32.436Z,20.54
2022-08-21T06:40:00.780Z,20.54
2022-08-21T06:42:31.500Z,20.53
2022-08-21T06:47:41.590Z,20.64
2022-08-21T06:50:15.996Z,20.91
2022-08-21T06:52:45.597Z,20.80
2022-08-21T06:55:22.303Z,20.91
2022-08-21T06:57:54.614Z,21.13
2022-08-21T07:03:05.632Z,21.21
2022-08-21T07:05:36.441Z,21.46
2022-08-21T07:08:05.252Z,21.49
2022-08-21T07:13:16.309Z,21.38
2022-08-21T07:16:00.281Z,21.35
2022-08-21T07:18:33.134Z,21.49
2022-08-21T07:23:53.794Z,21.64
2022-08-21T08:13:27.301Z,23.17
2022-08-21T08:24:18.839Z,22.98
2022-08-21T14:49:08.852Z,25.38
2022-08-21T20:19:36.888Z,21.70
2022-08-21T20:24:53.575Z,21.50
2022-08-21T20:27:27.483Z,21.44
2022-08-21T20:29:57.224Z,21.44
2022-08-21T20:32:27.666Z,21.45
2022-08-21T20:34:55.775Z,21.39
2022-08-21T20:51:45.406Z,21.14
2022-08-21T20:54:41.756Z,21.32
2022-08-21T20:57:20.751Z,21.10
2022-08-21T21:00:02.149Z,21.27
2022-08-21T21:03:06.713Z,21.27
2022-08-21T21:06:03.255Z,21.03
2022-08-21T21:08:55.196Z,21.08
2022-08-21T21:11:40.584Z,20.89
2022-08-21T21:14:28.114Z,20.86
2022-08-21T21:19:54.134Z,20.72
2022-08-21T21:22:29.781Z,20.69
2022-08-21T21:48:26.950Z,20.49
2022-08-21T21:51:27.248Z,20.49
2022-08-21T21:54:20.905Z,20.57
2022-08-21T21:57:34.615Z,20.70
2022-08-21T22:03:22.478Z,20.52
2022-08-21T22:06:10.229Z,20.59
2022-08-21T22:09:10.364Z,20.53
2022-08-21T22:12:24.507Z,20.32
2022-08-21T22:14:54.572Z,20.30
2022-08-21T22:17:51.341Z,20.48
2022-08-21T22:23:22.471Z,20.33
2022-08-21T22:28:42.319Z,20.32
2022-08-21T22:34:21.670Z,20.42
2022-08-21T22:37:03.154Z,20.22
2022-08-21T22:39:38.751Z,20.18
2022-08-21T22:45:15.838Z,20.33
2022-08-21T22:47:50.623Z,20.15
2022-08-21T22:53:10.695Z,20.05
2022-08-21T22:55:50.319Z,20.09
2022-08-21T22:58:19.281Z,20.20
2022-08-21T23:00:55.896Z,20.18
2022-08-21T23:03:43.343Z,20.02
2022-08-21T23:06:33.155Z,20.05
2022-08-21T23:09:04.352Z,19.99
2022-08-21T23:14:25.467Z,20.01
2022-08-21T23:17:12.456Z,20.20
2022-08-21T23:20:05.057Z,19.99
2022-08-21T23:25:51.581Z,20.07
2022-08-21T23:32:22.949Z,19.95
2022-08-21T23:35:21.765Z,20.06
2022-08-21T23:38:09.373Z,20.08
2022-08-21T23:40:53.453Z,19.94
2022-08-21T23:43:38.053Z,20.09
2022-08-21T23:46:34.040Z,19.87
2022-08-21T23:49:22.071Z,20.08
2022-08-21T23:52:20.919Z,19.85
2022-08-21T23:55:20.589Z,19.93
2022-08-21T23:58:00.630Z,19.93
